Unalaska, AK (99685)

11:00 AM AKDT on September 01, 2014 (GMT -0800)
Dutch Harbor | Change Station
CLOSE
Current Station
Airport
Location: Dutch Harbor,
Elevation: 13 ft
Nearby Weather Stations

Elev 13 ft 53.90 °N, 166.54 °W | Updated 4 minutes ago

Clear
Clear
49 °F
Feels Like 49 °F
N
0
Wind Variable Wind from North

Today
High -- | Low -- °F
--% Chance of Precip.
Yesterday
High -- | Low -- °F
Precip. -- in
8:15 AM 9:56 PM
Waxing Crescent, 43% visible
Pressure 30.31 in
Visibility 10.0 miles
Clouds Clear
Dew Point 42 °F
Humidity 77%
Rainfall 0.00 in
Snow Depth Not available.
UV 2 out of 12
Pollen Not available.
Air Quality Not available.
Flu Activity Not available.
METAR PADU 011856Z 00000KT 10SM CLR 09/06 A3029 RMK AO2 SLP264 MH T00940056

More Conditions Fewer Conditions

Pressure 30.31 in
Visibility 10.0 miles
Clouds Clear
Dew Point 42 °F
Humidity 77%
Rainfall 0.00 in
Snow Depth Not available.
UV 2 out of 12
Pollen Not available.
Air Quality Not available.
Flu Activity Not available.
METAR PADU 011856Z 00000KT 10SM CLR 09/06 A3029 RMK AO2 SLP264 MH T00940056

More Conditions Fewer Conditions

10-Day Weather Forecast

Almanac

Astronomy

Sep. 01, 2014 Rise Set
Actual Time 8:15 AM AKDT 9:56 PM AKDT
Civil Twilight 7:38 AM AKDT 10:33 PM AKDT
Nautical Twilight 6:52 AM AKDT 11:19 PM AKDT
Astronomical Twilight 6:00 AM AKDT 12:10 AM AKDT
Moon 4:15 PM AKDT 12:25 AM AKDT
Length of Visible Light 14h 54m
Length of Day
13h 40m
Tomorrow will be 4m 11s shorter.
Waxing Crescent, 43% of the Moon is Illuminated
Today
Waxing Crescent
Sep 2
First Quarter
Sep 8
Full
Sep 15
Last Quarter
Sep 24
New

Today's Extremes

State Highs State Lows

Community

WunderPhotos

Upload Photos

1,749,367 photos uploaded!

WunderBlogs® & News

Nearby

Snow Depth

Station Depth Elevation
Port Graham 0 in 300 ft
Mcneil Canyon 1 in 1320 ft
MF Bradley River 3 in 2300 ft
Rocky Point 3 in 500 ft
Cooper Lake 16 in 1200 ft

Earthquake Activity

City Distance Mag. Time & Date
No recent earthquake activity has been reported nearby.
Minimum magnitude displayed is 2.5.

Coastal Water Temperatures

Place Temperature
No Stations Reporting

Nearby Weather Stations